Buxcliff — CQEC — position and weather

sailwx.info

Track history (hours):
 
Tides and Currents Weather Stations Pressure Air Temp Water Temp Dewpoint Dewpoint Depression Visibility Wind Speed Wind Dir Waves Ship Positions

Buxcliff

Last reported at 2017-Dec-03 05:51 UTC. Time now 2017-Dec-14 13:00 UTC.
Position N 30°51' E 032°19'.
Warning: this ship's position is 11 days out of date.

Length 300 m; draft 13.3 m.

Type: Ship. MMSI: 255805678.

Date/timePositionNaut miles runAvg speedWind from/ knotsBaromVisibWave heightAir tempDewpointWater temp
2017-Dec-03 05:51N 30°51' E 032°19'3 9.0
2017-Dec-03 05:30N 30°54' E 032°19'7 8.8
2017-Dec-03 04:46N 31°01' E 032°19'2 8.6
2017-Dec-03 04:30N 31°03' E 032°19'4 7.8
2017-Dec-03 04:00N 31°07' E 032°19'4 7.2
2017-Dec-03 03:28N 31°11' E 032°20'3 6.8
2017-Dec-03 03:00N 31°14' E 032°21'5 9.4
2017-Dec-03 02:27N 31°19' E 032°22'4 8.0
2017-Dec-03 02:00N 31°22' E 032°23'5 4.1
2017-Dec-03 00:53N 31°24' E 032°18'0 0.0
2017-Dec-02 20:28N 31°24' E 032°18'2 4.6
2017-Dec-02 20:01N 31°24' E 032°16'2312.5
2017-Dec-02 18:09N 31°43' E 031°59'210.5
2017-Dec-02 17:59N 31°44' E 031°58'612.0
2017-Dec-02 17:30N 31°40' E 031°52'  
2017-Nov-29 21:37N 36°32' E 014°48'319.9
2017-Nov-29 21:29N 36°33' E 014°45'919.9
2017-Nov-29 21:00N 36°37' E 014°35'1019.3
2017-Nov-29 20:30N 36°41' E 014°24'1019.0
2017-Nov-29 20:00N 36°45' E 014°13'1019.8
2017-Nov-29 19:30N 36°49' E 014°02'1019.8
2017-Nov-29 19:00N 36°54' E 013°51'38418.5
2017-Nov-28 22:13N 42°29' E 009°49'2919.8
2017-Nov-28 20:43N 42°58' E 009°37'419.7
2017-Nov-28 20:30N 43°02' E 009°36'1019.6
2017-Nov-28 20:00N 43°11' E 009°31'1019.5
2017-Nov-28 19:30N 43°20' E 009°27'1019.6
2017-Nov-28 19:00N 43°29' E 009°23'1019.4
2017-Nov-28 18:30N 43°39' E 009°18'1019.4
2017-Nov-28 18:00N 43°48' E 009°14'1019.2
2017-Nov-28 17:30N 43°56' E 009°07'919.0
2017-Nov-28 17:00N 44°04' E 008°60'918.7
2017-Nov-28 16:30N 44°11' E 008°52'917.1
2017-Nov-28 16:00N 44°18' E 008°45'7 7.0
2017-Nov-28 14:59N 44°25' E 008°48'0 0.0
2017-Nov-28 14:29N 44°25' E 008°48'0 0.0
2017-Nov-28 13:58N 44°25' E 008°48'0 0.0
2017-Nov-28 13:28N 44°25' E 008°48'0 0.0
2017-Nov-28 12:58N 44°25' E 008°48'0 0.0
2017-Nov-28 12:28N 44°25' E 008°48'0 0.0
2017-Nov-28 11:58N 44°25' E 008°48'0 0.0
2017-Nov-28 11:27N 44°25' E 008°48'0 0.0
2017-Nov-28 11:00N 44°25' E 008°48'0 0.0
2017-Nov-28 10:27N 44°25' E 008°48'0 0.0
2017-Nov-28 10:00N 44°25' E 008°48'0 0.0
2017-Nov-28 09:30N 44°25' E 008°48'0 0.0
2017-Nov-28 08:56N 44°25' E 008°48'0 0.0
2017-Nov-28 08:29N 44°25' E 008°48'0 0.0
2017-Nov-28 07:59N 44°25' E 008°48'0 0.0
2017-Nov-28 07:29N 44°25' E 008°48'0 0.0
2017-Nov-28 06:58N 44°25' E 008°48'0 0.0
2017-Nov-28 06:28N 44°25' E 008°48'0 0.0
2017-Nov-28 05:58N 44°25' E 008°48'0 0.0
2017-Nov-28 05:28N 44°25' E 008°48'0 0.0
2017-Nov-28 04:27N 44°25' E 008°48'0 0.0
2017-Nov-28 04:00N 44°25' E 008°48'0 0.0
2017-Nov-28 03:27N 44°25' E 008°48'0 0.0
2017-Nov-28 03:00N 44°25' E 008°48'0 0.0
2017-Nov-28 02:30N 44°25' E 008°48'0 0.0
2017-Nov-28 01:59N 44°25' E 008°48'0 0.0
2017-Nov-28 01:29N 44°25' E 008°48'0 0.0
2017-Nov-28 00:59N 44°25' E 008°48'0 0.0
2017-Nov-28 00:29N 44°25' E 008°48'0 0.0
2017-Nov-28 00:00N 44°25' E 008°48'1 2.7
2017-Nov-27 23:30N 44°25' E 008°46'3 6.6
2017-Nov-27 23:00N 44°22' E 008°43'0 0.7
2017-Nov-27 22:30N 44°22' E 008°43'0 0.6
2017-Nov-27 22:00N 44°22' E 008°43'3 5.4
2017-Nov-27 21:30N 44°19' E 008°41'611.5
2017-Nov-27 21:00N 44°14' E 008°38'611.7
2017-Nov-27 20:30N 44°09' E 008°34'611.4
2017-Nov-27 20:00N 44°04' E 008°30'611.5
2017-Nov-27 19:30N 43°59' E 008°27'611.6
2017-Nov-27 19:00N 43°53' E 008°23'4111.9
2017-Nov-27 15:31N 43°28' E 007°38'211.9
2017-Nov-27 15:21N 43°26' E 007°36'412.1
2017-Nov-27 15:00N 43°24' E 007°31'612.1
2017-Nov-27 14:30N 43°20' E 007°25'611.8
2017-Nov-27 14:00N 43°17' E 007°18'612.0
2017-Nov-27 13:30N 43°13' E 007°12'612.0
2017-Nov-27 12:59N 43°09' E 007°05'8910.4
2017-Nov-27 04:25N 43°11' E 005°03'511.5
2017-Nov-27 04:00N 43°15' E 005°00'5 9.9
2017-Nov-27 03:30N 43°19' E 004°59'4 7.7
2017-Nov-27 03:01N 43°23' E 004°57'4 8.7
2017-Nov-27 02:30N 43°24' E 004°51'0 0.2
2017-Nov-27 01:56N 43°24' E 004°51'0 0.0
2017-Nov-27 01:29N 43°24' E 004°51'0 0.0
2017-Nov-27 00:59N 43°24' E 004°51'0 0.0
2017-Nov-27 00:28N 43°24' E 004°51'0 0.0
2017-Nov-26 23:58N 43°24' E 004°51'0 0.0
2017-Nov-26 23:28N 43°24' E 004°51'0 0.0
2017-Nov-26 22:52N 43°24' E 004°51'0 0.0
2017-Nov-26 22:27N 43°24' E 004°51'0 0.0
2017-Nov-26 21:57N 43°24' E 004°51'0 0.0
2017-Nov-26 21:24N 43°24' E 004°51'0 0.0
2017-Nov-26 21:00N 43°24' E 004°51'0 0.0
2017-Nov-26 20:27N 43°24' E 004°51'0 0.0
2017-Nov-26 19:53N 43°24' E 004°51'0 0.0
2017-Nov-26 19:29N 43°24' E 004°51'0 0.0
2017-Nov-26 18:56N 43°24' E 004°51'0 0.0
2017-Nov-26 18:29N 43°24' E 004°51'0 0.0
2017-Nov-26 17:59N 43°24' E 004°51'0 0.0
2017-Nov-26 17:28N 43°24' E 004°51'0 0.0
2017-Nov-26 16:58N 43°24' E 004°51'0 0.0
2017-Nov-26 16:28N 43°24' E 004°51'0 0.0
2017-Nov-26 15:58N 43°24' E 004°51'0 0.0
2017-Nov-26 15:24N 43°24' E 004°51'0 0.0
2017-Nov-26 15:00N 43°24' E 004°51'0 0.0
2017-Nov-26 14:30N 43°24' E 004°51'0 0.0
2017-Nov-26 14:00N 43°24' E 004°51'0 0.0
2017-Nov-26 13:27N 43°24' E 004°51'0 0.0
2017-Nov-26 12:59N 43°24' E 004°51'0 0.0
2017-Nov-26 12:29N 43°24' E 004°51'0 0.0
2017-Nov-26 11:59N 43°24' E 004°51'0 0.0
2017-Nov-26 11:29N 43°24' E 004°51'0 0.0
2017-Nov-26 10:59N 43°24' E 004°51'0 0.0
2017-Nov-26 10:13N 43°24' E 004°51'0 0.0
2017-Nov-26 09:58N 43°24' E 004°51'0 0.0
2017-Nov-26 09:16N 43°24' E 004°51'0 0.0
2017-Nov-26 08:58N 43°24' E 004°51'0 0.0
2017-Nov-26 08:30N 43°24' E 004°51'0 0.0
2017-Nov-26 08:00N 43°24' E 004°51'0 0.0
2017-Nov-26 07:21N 43°24' E 004°51'0 0.0
2017-Nov-26 06:51N 43°24' E 004°51'0 0.0
2017-Nov-26 06:21N 43°24' E 004°51'0 0.0
2017-Nov-26 05:59N 43°24' E 004°51'0 0.0
2017-Nov-26 05:29N 43°24' E 004°51'0 0.0
2017-Nov-26 04:56N 43°24' E 004°51'0 0.0
2017-Nov-26 04:29N 43°24' E 004°51'0 0.6
2017-Nov-26 04:00N 43°24' E 004°51'1 2.9
2017-Nov-26 03:30N 43°24' E 004°53'612.6
2017-Nov-26 03:00N 43°20' E 004°60'2 3.2
2017-Nov-26 02:31N 43°18' E 005°00'28319.5
2017-Nov-25 11:59N 39°28' E 001°20'2221.3
2017-Nov-25 10:58N 39°11' E 001°03'1121.0
2017-Nov-25 10:26N 39°02' E 000°55'1620.3
2017-Nov-25 09:39N 38°49' E 000°42'320.1
2017-Nov-25 09:30N 38°47' E 000°40'1020.4
2017-Nov-25 09:00N 38°39' E 000°32'1620.7
2017-Nov-25 08:13N 38°26' E 000°20'520.8
2017-Nov-25 08:00N 38°22' E 000°16'1020.7
2017-Nov-25 07:30N 38°14' E 000°08'1020.6
2017-Nov-25 07:00N 38°06' E 000°00'1020.6
2017-Nov-25 06:30N 37°57' W 000°07'1120.3
2017-Nov-25 05:57N 37°48' W 000°16'920.5
2017-Nov-25 05:30N 37°41' W 000°23'1020.5
2017-Nov-25 05:00N 37°33' W 000°31'1620.3
2017-Nov-25 04:14N 37°23' W 000°45'720.3
2017-Nov-25 03:54N 37°18' W 000°52'22419.3
2017-Nov-24 16:20N 36°00' W 005°13'722.2
2017-Nov-24 16:00N 35°58' W 005°22'3620.5
2017-Nov-24 14:14N 35°53' W 006°06'918.2
2017-Nov-24 13:44N 35°54' W 006°18'417.3
2017-Nov-24 13:30N 35°54' W 006°22'917.4
2017-Nov-24 13:00N 35°56' W 006°33'917.6
2017-Nov-24 12:30N 35°58' W 006°43'917.1
2017-Nov-24 12:00N 36°00' W 006°53'917.4
2017-Nov-24 11:30N 36°03' W 007°04'917.6
2017-Nov-24 11:00N 36°05' W 007°14'917.7
2017-Nov-24 10:30N 36°08' W 007°25'917.3
2017-Nov-24 10:00N 36°11' W 007°35'917.6
2017-Nov-24 09:30N 36°13' W 007°45'917.2
2017-Nov-24 09:00N 36°15' W 007°56'917.4
2017-Nov-24 08:30N 36°18' W 008°06'917.4
2017-Nov-24 08:00N 36°20' W 008°16'5017.4
2017-Nov-24 05:07N 36°34' W 009°16'1016.3
2017-Nov-24 04:28N 36°41' W 009°26'915.9
2017-Nov-24 03:54N 36°49' W 009°33'716.4
2017-Nov-24 03:30N 36°55' W 009°35'3417.0
2017-Nov-24 01:29N 37°28' W 009°45'817.6
2017-Nov-24 01:00N 37°37' W 009°47'917.3
2017-Nov-24 00:30N 37°45' W 009°50'1617.4
2017-Nov-23 23:35N 38°01' W 009°54'417.8
2017-Nov-23 23:23N 38°04' W 009°55'717.9
2017-Nov-23 23:00N 38°11' W 009°57'917.9
2017-Nov-23 22:30N 38°19' W 009°60'917.7
2017-Nov-23 22:00N 38°28' W 010°02'917.5
2017-Nov-23 21:30N 38°37' W 010°05'917.1
2017-Nov-23 21:00N 38°45' W 010°07'917.4
2017-Nov-23 20:30N 38°54' W 010°08'917.3
2017-Nov-23 20:00N 39°02' W 010°10'  
Track history (hours):
 
Tides and Currents Weather Stations Pressure Air Temp Water Temp Dewpoint Dewpoint Depression Visibility Wind Speed Wind Dir Waves Ship Positions

Buxcliff

Last reported at 2017-Dec-03 05:51 UTC. Time now 2017-Dec-14 13:00 UTC.
Position N 30°51' E 032°19'.
Warning: this ship's position is 11 days out of date.

Length 300 m; draft 13.3 m.

Type: Ship. MMSI: 255805678.

Date/timePositionNaut miles runAvg speedWind from/ knotsBaromVisibWave heightAir tempDewpointWater temp
2017-Dec-03 05:51N 30°51' E 032°19'3 9.0
2017-Dec-03 05:30N 30°54' E 032°19'7 8.8
2017-Dec-03 04:46N 31°01' E 032°19'2 8.6
2017-Dec-03 04:30N 31°03' E 032°19'4 7.8
2017-Dec-03 04:00N 31°07' E 032°19'4 7.2
2017-Dec-03 03:28N 31°11' E 032°20'3 6.8
2017-Dec-03 03:00N 31°14' E 032°21'5 9.4
2017-Dec-03 02:27N 31°19' E 032°22'4 8.0
2017-Dec-03 02:00N 31°22' E 032°23'5 4.1
2017-Dec-03 00:53N 31°24' E 032°18'0 0.0
2017-Dec-02 20:28N 31°24' E 032°18'2 4.6
2017-Dec-02 20:01N 31°24' E 032°16'2312.5
2017-Dec-02 18:09N 31°43' E 031°59'210.5
2017-Dec-02 17:59N 31°44' E 031°58'612.0
2017-Dec-02 17:30N 31°40' E 031°52'  
2017-Nov-29 21:37N 36°32' E 014°48'319.9
2017-Nov-29 21:29N 36°33' E 014°45'919.9
2017-Nov-29 21:00N 36°37' E 014°35'1019.3
2017-Nov-29 20:30N 36°41' E 014°24'1019.0
2017-Nov-29 20:00N 36°45' E 014°13'1019.8
2017-Nov-29 19:30N 36°49' E 014°02'1019.8
2017-Nov-29 19:00N 36°54' E 013°51'38418.5
2017-Nov-28 22:13N 42°29' E 009°49'2919.8
2017-Nov-28 20:43N 42°58' E 009°37'419.7
2017-Nov-28 20:30N 43°02' E 009°36'1019.6
2017-Nov-28 20:00N 43°11' E 009°31'1019.5
2017-Nov-28 19:30N 43°20' E 009°27'1019.6
2017-Nov-28 19:00N 43°29' E 009°23'1019.4
2017-Nov-28 18:30N 43°39' E 009°18'1019.4
2017-Nov-28 18:00N 43°48' E 009°14'1019.2
2017-Nov-28 17:30N 43°56' E 009°07'919.0
2017-Nov-28 17:00N 44°04' E 008°60'918.7
2017-Nov-28 16:30N 44°11' E 008°52'917.1
2017-Nov-28 16:00N 44°18' E 008°45'7 7.0
2017-Nov-28 14:59N 44°25' E 008°48'0 0.0
2017-Nov-28 14:29N 44°25' E 008°48'0 0.0
2017-Nov-28 13:58N 44°25' E 008°48'0 0.0
2017-Nov-28 13:28N 44°25' E 008°48'0 0.0
2017-Nov-28 12:58N 44°25' E 008°48'0 0.0
2017-Nov-28 12:28N 44°25' E 008°48'0 0.0
2017-Nov-28 11:58N 44°25' E 008°48'0 0.0
2017-Nov-28 11:27N 44°25' E 008°48'0 0.0
2017-Nov-28 11:00N 44°25' E 008°48'0 0.0
2017-Nov-28 10:27N 44°25' E 008°48'0 0.0
2017-Nov-28 10:00N 44°25' E 008°48'0 0.0
2017-Nov-28 09:30N 44°25' E 008°48'0 0.0
2017-Nov-28 08:56N 44°25' E 008°48'0 0.0
2017-Nov-28 08:29N 44°25' E 008°48'0 0.0
2017-Nov-28 07:59N 44°25' E 008°48'0 0.0
2017-Nov-28 07:29N 44°25' E 008°48'0 0.0
2017-Nov-28 06:58N 44°25' E 008°48'0 0.0
2017-Nov-28 06:28N 44°25' E 008°48'0 0.0
2017-Nov-28 05:58N 44°25' E 008°48'0 0.0
2017-Nov-28 05:28N 44°25' E 008°48'0 0.0
2017-Nov-28 04:27N 44°25' E 008°48'0 0.0
2017-Nov-28 04:00N 44°25' E 008°48'0 0.0
2017-Nov-28 03:27N 44°25' E 008°48'0 0.0
2017-Nov-28 03:00N 44°25' E 008°48'0 0.0
2017-Nov-28 02:30N 44°25' E 008°48'0 0.0
2017-Nov-28 01:59N 44°25' E 008°48'0 0.0
2017-Nov-28 01:29N 44°25' E 008°48'0 0.0
2017-Nov-28 00:59N 44°25' E 008°48'0 0.0
2017-Nov-28 00:29N 44°25' E 008°48'0 0.0
2017-Nov-28 00:00N 44°25' E 008°48'1 2.7
2017-Nov-27 23:30N 44°25' E 008°46'3 6.6
2017-Nov-27 23:00N 44°22' E 008°43'0 0.7
2017-Nov-27 22:30N 44°22' E 008°43'0 0.6
2017-Nov-27 22:00N 44°22' E 008°43'3 5.4
2017-Nov-27 21:30N 44°19' E 008°41'611.5
2017-Nov-27 21:00N 44°14' E 008°38'611.7
2017-Nov-27 20:30N 44°09' E 008°34'611.4
2017-Nov-27 20:00N 44°04' E 008°30'611.5
2017-Nov-27 19:30N 43°59' E 008°27'611.6
2017-Nov-27 19:00N 43°53' E 008°23'4111.9
2017-Nov-27 15:31N 43°28' E 007°38'211.9
2017-Nov-27 15:21N 43°26' E 007°36'412.1
2017-Nov-27 15:00N 43°24' E 007°31'612.1
2017-Nov-27 14:30N 43°20' E 007°25'611.8
2017-Nov-27 14:00N 43°17' E 007°18'612.0
2017-Nov-27 13:30N 43°13' E 007°12'612.0
2017-Nov-27 12:59N 43°09' E 007°05'8910.4
2017-Nov-27 04:25N 43°11' E 005°03'511.5
2017-Nov-27 04:00N 43°15' E 005°00'5 9.9
2017-Nov-27 03:30N 43°19' E 004°59'4 7.7
2017-Nov-27 03:01N 43°23' E 004°57'4 8.7
2017-Nov-27 02:30N 43°24' E 004°51'0 0.2
2017-Nov-27 01:56N 43°24' E 004°51'0 0.0
2017-Nov-27 01:29N 43°24' E 004°51'0 0.0
2017-Nov-27 00:59N 43°24' E 004°51'0 0.0
2017-Nov-27 00:28N 43°24' E 004°51'0 0.0
2017-Nov-26 23:58N 43°24' E 004°51'0 0.0
2017-Nov-26 23:28N 43°24' E 004°51'0 0.0
2017-Nov-26 22:52N 43°24' E 004°51'0 0.0
2017-Nov-26 22:27N 43°24' E 004°51'0 0.0
2017-Nov-26 21:57N 43°24' E 004°51'0 0.0
2017-Nov-26 21:24N 43°24' E 004°51'0 0.0
2017-Nov-26 21:00N 43°24' E 004°51'0 0.0
2017-Nov-26 20:27N 43°24' E 004°51'0 0.0
2017-Nov-26 19:53N 43°24' E 004°51'0 0.0
2017-Nov-26 19:29N 43°24' E 004°51'0 0.0
2017-Nov-26 18:56N 43°24' E 004°51'0 0.0
2017-Nov-26 18:29N 43°24' E 004°51'0 0.0
2017-Nov-26 17:59N 43°24' E 004°51'0 0.0
2017-Nov-26 17:28N 43°24' E 004°51'0 0.0
2017-Nov-26 16:58N 43°24' E 004°51'0 0.0
2017-Nov-26 16:28N 43°24' E 004°51'0 0.0
2017-Nov-26 15:58N 43°24' E 004°51'0 0.0
2017-Nov-26 15:24N 43°24' E 004°51'0 0.0
2017-Nov-26 15:00N 43°24' E 004°51'0 0.0
2017-Nov-26 14:30N 43°24' E 004°51'0 0.0
2017-Nov-26 14:00N 43°24' E 004°51'0 0.0
2017-Nov-26 13:27N 43°24' E 004°51'0 0.0
2017-Nov-26 12:59N 43°24' E 004°51'0 0.0
2017-Nov-26 12:29N 43°24' E 004°51'0 0.0
2017-Nov-26 11:59N 43°24' E 004°51'0 0.0
2017-Nov-26 11:29N 43°24' E 004°51'0 0.0
2017-Nov-26 10:59N 43°24' E 004°51'0 0.0
2017-Nov-26 10:13N 43°24' E 004°51'0 0.0
2017-Nov-26 09:58N 43°24' E 004°51'0 0.0
2017-Nov-26 09:16N 43°24' E 004°51'0 0.0
2017-Nov-26 08:58N 43°24' E 004°51'0 0.0
2017-Nov-26 08:30N 43°24' E 004°51'0 0.0
2017-Nov-26 08:00N 43°24' E 004°51'0 0.0
2017-Nov-26 07:21N 43°24' E 004°51'0 0.0
2017-Nov-26 06:51N 43°24' E 004°51'0 0.0
2017-Nov-26 06:21N 43°24' E 004°51'0 0.0
2017-Nov-26 05:59N 43°24' E 004°51'0 0.0
2017-Nov-26 05:29N 43°24' E 004°51'0 0.0
2017-Nov-26 04:56N 43°24' E 004°51'0 0.0
2017-Nov-26 04:29N 43°24' E 004°51'0 0.6
2017-Nov-26 04:00N 43°24' E 004°51'1 2.9
2017-Nov-26 03:30N 43°24' E 004°53'612.6
2017-Nov-26 03:00N 43°20' E 004°60'2 3.2
2017-Nov-26 02:31N 43°18' E 005°00'28319.5
2017-Nov-25 11:59N 39°28' E 001°20'2221.3
2017-Nov-25 10:58N 39°11' E 001°03'1121.0
2017-Nov-25 10:26N 39°02' E 000°55'1620.3
2017-Nov-25 09:39N 38°49' E 000°42'320.1
2017-Nov-25 09:30N 38°47' E 000°40'1020.4
2017-Nov-25 09:00N 38°39' E 000°32'1620.7
2017-Nov-25 08:13N 38°26' E 000°20'520.8
2017-Nov-25 08:00N 38°22' E 000°16'1020.7
2017-Nov-25 07:30N 38°14' E 000°08'1020.6
2017-Nov-25 07:00N 38°06' E 000°00'1020.6
2017-Nov-25 06:30N 37°57' W 000°07'1120.3
2017-Nov-25 05:57N 37°48' W 000°16'920.5
2017-Nov-25 05:30N 37°41' W 000°23'1020.5
2017-Nov-25 05:00N 37°33' W 000°31'1620.3
2017-Nov-25 04:14N 37°23' W 000°45'720.3
2017-Nov-25 03:54N 37°18' W 000°52'22419.3
2017-Nov-24 16:20N 36°00' W 005°13'722.2
2017-Nov-24 16:00N 35°58' W 005°22'3620.5
2017-Nov-24 14:14N 35°53' W 006°06'918.2
2017-Nov-24 13:44N 35°54' W 006°18'417.3
2017-Nov-24 13:30N 35°54' W 006°22'917.4
2017-Nov-24 13:00N 35°56' W 006°33'917.6
2017-Nov-24 12:30N 35°58' W 006°43'917.1
2017-Nov-24 12:00N 36°00' W 006°53'917.4
2017-Nov-24 11:30N 36°03' W 007°04'917.6
2017-Nov-24 11:00N 36°05' W 007°14'917.7
2017-Nov-24 10:30N 36°08' W 007°25'917.3
2017-Nov-24 10:00N 36°11' W 007°35'917.6
2017-Nov-24 09:30N 36°13' W 007°45'917.2
2017-Nov-24 09:00N 36°15' W 007°56'917.4
2017-Nov-24 08:30N 36°18' W 008°06'917.4
2017-Nov-24 08:00N 36°20' W 008°16'5017.4
2017-Nov-24 05:07N 36°34' W 009°16'1016.3
2017-Nov-24 04:28N 36°41' W 009°26'915.9
2017-Nov-24 03:54N 36°49' W 009°33'716.4
2017-Nov-24 03:30N 36°55' W 009°35'3417.0
2017-Nov-24 01:29N 37°28' W 009°45'817.6
2017-Nov-24 01:00N 37°37' W 009°47'917.3
2017-Nov-24 00:30N 37°45' W 009°50'1617.4
2017-Nov-23 23:35N 38°01' W 009°54'417.8
2017-Nov-23 23:23N 38°04' W 009°55'717.9
2017-Nov-23 23:00N 38°11' W 009°57'917.9
2017-Nov-23 22:30N 38°19' W 009°60'917.7
2017-Nov-23 22:00N 38°28' W 010°02'917.5
2017-Nov-23 21:30N 38°37' W 010°05'917.1
2017-Nov-23 21:00N 38°45' W 010°07'917.4
2017-Nov-23 20:30N 38°54' W 010°08'917.3
2017-Nov-23 20:00N 39°02' W 010°10'  

Dump ship's entire track history